Wetterdaten: Woche 09.09.13 - 15.09.13 (KW37)
Datum Zeit Temp. A. Feuchte A. Luftdruck Regen Wind Richtung Taupunkt Windchill Windben
09.09.2013 00:00 16,1 C 71 % 1014,9 hPa 0,0 l/m 0,0 km/h N 10,9 C 16,1 C 0,0 km/h
09.09.2013 01:00 16,6 C 67 % 1014,1 hPa 0,0 l/m 0,0 km/h N 10,5 C 16,6 C 0,0 km/h
09.09.2013 02:00 17,3 C 63 % 1013,3 hPa 0,0 l/m 0,0 km/h N 10,2 C 17,3 C 0,0 km/h
09.09.2013 03:00 17,3 C 59 % 1012,6 hPa 0,0 l/m 0,0 km/h N 9,2 C 17,3 C 0,0 km/h
09.09.2013 04:00 16,8 C 61 % 1011,8 hPa 0,0 l/m 0,0 km/h N 9,1 C 16,8 C 0,0 km/h
09.09.2013 05:00 16,3 C 65 % 1011,7 hPa 0,0 l/m 0,0 km/h N 9,6 C 16,3 C 0,0 km/h
09.09.2013 06:00 15,8 C 70 % 1012,4 hPa 0,0 l/m 0,0 km/h N 10,3 C 15,8 C 0,0 km/h
09.09.2013 07:00 15,9 C 77 % 1013,5 hPa 0,3 l/m 0,5 km/h N 11,9 C 15,9 C 3,6 km/h
09.09.2013 08:00 18,7 C 76 % 1014,0 hPa 0,0 l/m 9,0 km/h N 14,3 C 17,6 C 34,6 km/h
09.09.2013 09:00 18,8 C 70 % 1014,3 hPa 0,0 l/m 10,2 km/h N 13,1 C 17,3 C 34,2 km/h
09.09.2013 10:00 17,7 C 73 % 1015,7 hPa 0,3 l/m 10,2 km/h N 12,9 C 16,1 C 34,2 km/h
09.09.2013 11:00 16,8 C 76 % 1016,4 hPa 0,0 l/m 14,2 km/h N 12,4 C 13,6 C 39,0 km/h
09.09.2013 12:00 17,0 C 75 % 1016,8 hPa 0,0 l/m 12,0 km/h N 12,6 C 14,7 C 29,4 km/h
09.09.2013 13:00 17,5 C 71 % 1017,3 hPa 0,0 l/m 8,4 km/h N 12,2 C 16,6 C 26,1 km/h
09.09.2013 14:00 18,6 C 64 % 1017,4 hPa 0,0 l/m 11,5 km/h N 11,5 C 16,6 C 33,3 km/h
09.09.2013 15:00 18,8 C 62 % 1017,5 hPa 0,0 l/m 9,5 km/h N 11,4 C 17,5 C 24,5 km/h
09.09.2013 16:00 18,9 C 62 % 1017,7 hPa 0,0 l/m 5,6 km/h N 11,4 C 18,8 C 22,1 km/h
09.09.2013 17:00 19,4 C 60 % 1017,6 hPa 0,0 l/m 5,7 km/h N 11,4 C 19,2 C 20,5 km/h
09.09.2013 18:00 19,2 C 59 % 1017,9 hPa 0,0 l/m 5,4 km/h N 10,9 C 19,1 C 19,3 km/h
09.09.2013 19:00 18,2 C 57 % 1018,3 hPa 0,0 l/m 5,1 km/h N 9,6 C 18,1 C 16,9 km/h
09.09.2013 20:00 17,4 C 58 % 1018,7 hPa 0,0 l/m 5,4 km/h N 9,0 C 17,3 C 18,9 km/h
09.09.2013 21:00 17,2 C 59 % 1018,8 hPa 0,0 l/m 2,9 km/h N 9,0 C 17,2 C 14,9 km/h
09.09.2013 22:00 16,4 C 59 % 1019,2 hPa 0,0 l/m 1,4 km/h N 8,5 C 16,4 C 11,3 km/h
09.09.2013 23:00 16,3 C 57 % 1019,1 hPa 0,0 l/m 3,1 km/h N 7,8 C 16,3 C 10,1 km/h
10.09.2013 00:00 14,9 C 62 % 1019,1 hPa 0,0 l/m 0,1 km/h N 7,7 C 14,9 C 1,2 km/h
10.09.2013 01:00 13,4 C 69 % 1019,1 hPa 0,0 l/m 0,4 km/h N 7,7 C 13,4 C 4,0 km/h
10.09.2013 02:00 12,9 C 73 % 1018,8 hPa 0,0 l/m 0,0 km/h N 8,1 C 12,9 C 1,2 km/h
10.09.2013 03:00 12,6 C 75 % 1018,6 hPa 0,0 l/m 0,0 km/h N 8,3 C 12,6 C 0,0 km/h
10.09.2013 04:00 12,3 C 77 % 1018,0 hPa 0,0 l/m 0,0 km/h N 8,3 C 12,3 C 0,0 km/h
10.09.2013 05:00 11,6 C 78 % 1017,8 hPa 0,0 l/m 0,0 km/h N 7,9 C 11,6 C 0,0 km/h
10.09.2013 06:00 10,9 C 81 % 1017,5 hPa 0,0 l/m 0,0 km/h N 7,7 C 10,9 C 0,0 km/h
10.09.2013 07:00 11,0 C 83 % 1017,4 hPa 0,0 l/m 0,0 km/h N 8,2 C 11,0 C 0,0 km/h
10.09.2013 08:00 12,2 C 83 % 1016,9 hPa 0,0 l/m 0,0 km/h N 9,4 C 12,2 C 0,0 km/h
10.09.2013 09:00 14,2 C 79 % 1016,3 hPa 0,0 l/m 0,0 km/h N 10,6 C 14,2 C 0,0 km/h
10.09.2013 10:00 16,6 C 74 % 1015,8 hPa 0,0 l/m 0,0 km/h N 11,9 C 16,6 C 0,0 km/h
10.09.2013 11:00 21,3 C 57 % 1015,0 hPa 0,0 l/m 4,1 km/h N 12,4 C 21,2 C 12,1 km/h
10.09.2013 12:00 23,9 C 48 % 1014,3 hPa 0,0 l/m 7,6 km/h N 12,2 C 23,5 C 19,7 km/h
10.09.2013 13:00 24,5 C 49 % 1013,5 hPa 0,0 l/m 8,3 km/h N 13,1 C 24,0 C 22,1 km/h
10.09.2013 14:00 24,2 C 52 % 1013,0 hPa 0,0 l/m 9,0 km/h N 13,6 C 23,5 C 23,3 km/h
10.09.2013 15:00 23,0 C 56 % 1012,3 hPa 0,0 l/m 9,5 km/h N 13,7 C 22,1 C 23,3 km/h
10.09.2013 16:00 22,5 C 59 % 1011,7 hPa 0,0 l/m 10,3 km/h N 14,0 C 21,4 C 24,9 km/h
10.09.2013 17:00 21,4 C 63 % 1011,1 hPa 0,0 l/m 11,7 km/h N 14,1 C 19,8 C 29,8 km/h
10.09.2013 18:00 20,4 C 67 % 1010,9 hPa 0,0 l/m 7,8 km/h N 14,0 C 19,9 C 26,1 km/h
10.09.2013 19:00 19,6 C 71 % 1011,2 hPa 0,0 l/m 6,0 km/h N 14,1 C 19,5 C 20,1 km/h
10.09.2013 20:00 19,3 C 72 % 1012,3 hPa 0,0 l/m 5,3 km/h N 14,1 C 19,1 C 18,5 km/h
10.09.2013 21:00 17,1 C 74 % 1014,1 hPa 0,3 l/m 12,3 km/h N 12,4 C 14,7 C 33,0 km/h
10.09.2013 22:00 14,5 C 80 % 1014,5 hPa 0,5 l/m 10,0 km/h N 11,1 C 12,7 C 28,2 km/h
10.09.2013 23:00 14,6 C 80 % 1015,0 hPa 0,0 l/m 6,8 km/h N 11,1 C 14,1 C 20,5 km/h
11.09.2013 00:00 14,4 C 81 % 1015,4 hPa 0,0 l/m 6,5 km/h N 11,0 C 13,6 C 21,7 km/h
11.09.2013 01:00 13,9 C 78 % 1015,5 hPa 0,3 l/m 12,3 km/h N 10,2 C 10,9 C 25,7 km/h
11.09.2013 02:00 13,5 C 77 % 1015,7 hPa 0,0 l/m 10,3 km/h N 9,5 C 11,4 C 23,3 km/h
11.09.2013 03:00 12,6 C 79 % 1015,7 hPa 0,3 l/m 9,0 km/h N 9,1 C 11,0 C 22,9 km/h
11.09.2013 04:00 12,1 C 81 % 1015,9 hPa 0,3 l/m 8,7 km/h N 8,9 C 10,6 C 21,3 km/h
11.09.2013 05:00 11,9 C 82 % 1015,5 hPa 0,3 l/m 4,8 km/h N 8,8 C 11,8 C 15,7 km/h
11.09.2013 06:00 11,7 C 82 % 1015,0 hPa 0,0 l/m 1,6 km/h N 8,7 C 11,7 C 8,4 km/h
11.09.2013 07:00 12,1 C 80 % 1014,8 hPa 0,0 l/m 4,5 km/h N 8,7 C 12,0 C 13,3 km/h
11.09.2013 08:00 13,1 C 74 % 1015,2 hPa 0,0 l/m 5,5 km/h N 8,6 C 13,1 C 16,5 km/h
11.09.2013 09:00 13,8 C 70 % 1015,3 hPa 0,0 l/m 6,1 km/h N 8,3 C 13,7 C 18,1 km/h
11.09.2013 10:00 14,1 C 70 % 1015,6 hPa 0,0 l/m 5,3 km/h N 8,6 C 13,9 C 15,7 km/h
11.09.2013 11:00 14,6 C 67 % 1015,5 hPa 0,0 l/m 6,6 km/h N 8,6 C 14,4 C 21,7 km/h
11.09.2013 12:00 15,8 C 64 % 1015,3 hPa 0,0 l/m 7,6 km/h N 8,9 C 15,0 C 20,1 km/h
11.09.2013 13:00 16,1 C 61 % 1015,3 hPa 0,0 l/m 9,1 km/h N 8,6 C 14,8 C 25,3 km/h
11.09.2013 14:00 17,8 C 56 % 1014,6 hPa 0,0 l/m 8,3 km/h N 9,0 C 16,9 C 21,3 km/h
11.09.2013 15:00 18,3 C 52 % 1014,3 hPa 0,0 l/m 7,6 km/h N 8,2 C 17,7 C 21,7 km/h
11.09.2013 16:00 18,4 C 52 % 1014,1 hPa 0,0 l/m 6,4 km/h N 8,2 C 18,1 C 17,3 km/h
11.09.2013 17:00 17,8 C 50 % 1014,4 hPa 0,0 l/m 4,7 km/h N 7,2 C 17,8 C 14,9 km/h
11.09.2013 18:00 16,8 C 54 % 1014,5 hPa 0,0 l/m 1,4 km/h N 7,5 C 16,8 C 8,1 km/h
11.09.2013 19:00 15,1 C 61 % 1014,7 hPa 0,0 l/m 0,0 km/h N 7,5 C 15,1 C 0,4 km/h
11.09.2013 20:00 13,3 C 69 % 1014,8 hPa 0,0 l/m 0,0 km/h N 7,8 C 13,3 C 0,0 km/h
11.09.2013 21:00 12,7 C 73 % 1014,8 hPa 0,0 l/m 0,0 km/h N 8,0 C 12,7 C 1,2 km/h
11.09.2013 22:00 12,3 C 76 % 1014,7 hPa 0,0 l/m 0,0 km/h N 8,3 C 12,3 C 1,6 km/h
11.09.2013 23:00 11,9 C 78 % 1014,6 hPa 0,0 l/m 0,0 km/h N 8,2 C 11,9 C 0,4 km/h
12.09.2013 00:00 12,0 C 78 % 1014,4 hPa 0,0 l/m 0,0 km/h N 8,3 C 12,0 C 0,4 km/h
12.09.2013 01:00 12,4 C 76 % 1014,4 hPa 0,0 l/m 0,3 km/h N 8,3 C 12,4 C 3,6 km/h
12.09.2013 02:00 13,0 C 72 % 1014,1 hPa 0,0 l/m 0,3 km/h N 8,0 C 13,0 C 3,6 km/h
12.09.2013 03:00 13,2 C 72 % 1014,0 hPa 0,0 l/m 1,2 km/h N 8,2 C 13,2 C 9,6 km/h
12.09.2013 04:00 14,0 C 68 % 1013,9 hPa 0,0 l/m 3,0 km/h N 8,1 C 14,0 C 13,3 km/h
12.09.2013 05:00 13,7 C 68 % 1013,8 hPa 0,0 l/m 0,7 km/h N 8,0 C 13,7 C 6,8 km/h
12.09.2013 06:00 13,4 C 70 % 1013,9 hPa 0,0 l/m 0,4 km/h N 7,9 C 13,4 C 4,4 km/h
12.09.2013 07:00 13,0 C 72 % 1014,2 hPa 0,0 l/m 0,2 km/h N 8,0 C 13,0 C 3,2 km/h
12.09.2013 08:00 13,4 C 74 % 1014,0 hPa 0,0 l/m 0,0 km/h N 8,8 C 13,4 C 0,4 km/h
12.09.2013 09:00 15,8 C 62 % 1013,9 hPa 0,0 l/m 5,4 km/h N 8,5 C 15,4 C 15,3 km/h
12.09.2013 10:00 17,5 C 58 % 1014,0 hPa 0,0 l/m 7,3 km/h N 9,0 C 16,6 C 20,9 km/h
12.09.2013 11:00 18,1 C 56 % 1013,9 hPa 0,0 l/m 2,5 km/h N 9,2 C 18,1 C 10,9 km/h
12.09.2013 12:00 18,6 C 56 % 1013,5 hPa 0,0 l/m 4,9 km/h N 9,6 C 18,6 C 14,9 km/h
12.09.2013 13:00 17,5 C 61 % 1013,2 hPa 0,0 l/m 4,7 km/h N 9,8 C 17,5 C 14,1 km/h
12.09.2013 14:00 16,3 C 73 % 1013,5 hPa 4,7 l/m 3,7 km/h N 11,5 C 16,3 C 14,1 km/h
12.09.2013 15:00 16,1 C 67 % 1013,4 hPa 0,0 l/m 6,7 km/h N 10,0 C 15,2 C 16,9 km/h
12.09.2013 16:00 17,1 C 65 % 1013,5 hPa 0,0 l/m 2,4 km/h N 10,4 C 17,1 C 12,1 km/h
12.09.2013 17:00 17,1 C 59 % 1013,7 hPa 0,0 l/m 6,7 km/h N 9,0 C 16,6 C 20,5 km/h
12.09.2013 18:00 15,8 C 60 % 1013,8 hPa 0,0 l/m 6,1 km/h N 8,1 C 15,7 C 20,5 km/h
12.09.2013 19:00 15,3 C 63 % 1014,4 hPa 0,0 l/m 4,7 km/h N 8,2 C 15,2 C 23,0 km/h
12.09.2013 20:00 14,4 C 65 % 1015,0 hPa 0,0 l/m 7,8 km/h N 7,8 C 13,6 C 27,8 km/h
12.09.2013 21:00 13,4 C 68 % 1015,3 hPa 0,0 l/m 7,5 km/h N 7,5 C 12,7 C 27,0 km/h
12.09.2013 22:00 13,0 C 67 % 1015,5 hPa 0,0 l/m 9,5 km/h N 7,1 C 11,2 C 24,5 km/h
12.09.2013 23:00 12,8 C 68 % 1015,9 hPa 0,0 l/m 7,1 km/h N 7,0 C 12,1 C 20,9 km/h
13.09.2013 00:00 12,7 C 69 % 1016,1 hPa 0,0 l/m 8,6 km/h N 7,1 C 11,4 C 24,9 km/h
13.09.2013 01:00 12,4 C 70 % 1016,0 hPa 0,0 l/m 8,8 km/h N 7,1 C 10,9 C 23,8 km/h
13.09.2013 02:00 12,5 C 71 % 1016,0 hPa 0,0 l/m 10,1 km/h N 7,2 C 10,3 C 25,8 km/h
13.09.2013 03:00 12,3 C 73 % 1016,0 hPa 0,0 l/m 9,7 km/h N 7,5 C 10,3 C 24,5 km/h
13.09.2013 04:00 12,2 C 74 % 1015,8 hPa 0,0 l/m 5,9 km/h N 7,6 C 12,1 C 17,3 km/h
13.09.2013 05:00 12,2 C 74 % 1015,7 hPa 0,0 l/m 7,2 km/h N 7,6 C 11,6 C 21,3 km/h
13.09.2013 06:00 12,0 C 75 % 1015,9 hPa 0,0 l/m 8,7 km/h N 7,8 C 10,6 C 22,9 km/h
13.09.2013 07:00 12,3 C 76 % 1016,6 hPa 0,0 l/m 7,8 km/h N 8,3 C 11,3 C 22,9 km/h
13.09.2013 08:00 12,8 C 76 % 1016,8 hPa 0,0 l/m 11,3 km/h N 8,7 C 10,1 C 29,8 km/h
13.09.2013 09:00 12,9 C 76 % 1017,1 hPa 0,0 l/m 11,1 km/h N 8,8 C 10,3 C 24,9 km/h
13.09.2013 10:00 13,5 C 76 % 1017,6 hPa 0,0 l/m 9,5 km/h N 9,3 C 11,7 C 24,9 km/h
13.09.2013 11:00 14,2 C 73 % 1017,6 hPa 0,0 l/m 11,4 km/h N 9,5 C 11,7 C 27,3 km/h
13.09.2013 12:00 15,0 C 71 % 1017,5 hPa 0,0 l/m 11,6 km/h N 9,7 C 12,5 C 26,6 km/h
13.09.2013 13:00 14,7 C 73 % 1017,7 hPa 0,0 l/m 6,9 km/h N 9,9 C 14,2 C 24,5 km/h
13.09.2013 14:00 15,1 C 71 % 1017,8 hPa 0,0 l/m 8,6 km/h N 9,9 C 13,9 C 24,5 km/h
13.09.2013 15:00 15,6 C 71 % 1017,5 hPa 0,0 l/m 9,7 km/h N 10,3 C 14,0 C 24,9 km/h
13.09.2013 16:00 14,4 C 73 % 1017,5 hPa 0,5 l/m 11,1 km/h N 9,7 C 12,0 C 29,4 km/h
13.09.2013 17:00 14,5 C 74 % 1017,3 hPa 0,0 l/m 7,9 km/h N 9,9 C 13,6 C 33,4 km/h
13.09.2013 18:00 14,6 C 73 % 1017,5 hPa 0,3 l/m 11,3 km/h N 9,8 C 12,1 C 30,6 km/h
13.09.2013 19:00 12,4 C 81 % 1018,2 hPa 4,9 l/m 6,2 km/h N 9,2 C 11,9 C 18,5 km/h
13.09.2013 20:00 12,4 C 83 % 1018,0 hPa 0,0 l/m 6,6 km/h N 9,5 C 11,7 C 22,5 km/h
13.09.2013 21:00 12,7 C 82 % 1018,1 hPa 0,0 l/m 8,7 km/h N 9,7 C 11,3 C 24,1 km/h
13.09.2013 22:00 13,0 C 81 % 1017,9 hPa 0,0 l/m 7,8 km/h N 9,7 C 12,1 C 24,5 km/h
13.09.2013 23:00 13,2 C 79 % 1017,4 hPa 0,0 l/m 7,1 km/h N 9,5 C 12,5 C 24,5 km/h
14.09.2013 00:00 13,7 C 76 % 1016,9 hPa 0,0 l/m 9,7 km/h N 9,6 C 11,8 C 25,4 km/h
14.09.2013 01:00 13,6 C 77 % 1016,8 hPa 0,0 l/m 8,9 km/h N 9,7 C 12,3 C 24,1 km/h
14.09.2013 02:00 13,8 C 77 % 1016,2 hPa 0,0 l/m 8,3 km/h N 9,8 C 12,7 C 27,8 km/h
14.09.2013 03:00 13,9 C 78 % 1015,5 hPa 0,3 l/m 7,2 km/h N 10,1 C 13,4 C 22,1 km/h
14.09.2013 04:00 13,3 C 82 % 1015,1 hPa 0,8 l/m 4,9 km/h N 10,2 C 13,3 C 18,9 km/h
14.09.2013 05:00 13,0 C 83 % 1014,3 hPa 0,8 l/m 2,8 km/h N 10,2 C 13,0 C 13,3 km/h
14.09.2013 06:00 13,2 C 82 % 1014,1 hPa 0,3 l/m 5,3 km/h N 10,3 C 13,2 C 21,3 km/h
14.09.2013 07:00 13,7 C 80 % 1014,2 hPa 0,0 l/m 6,9 km/h N 10,2 C 13,2 C 26,9 km/h
14.09.2013 08:00 13,6 C 80 % 1014,1 hPa 1,0 l/m 7,9 km/h N 10,2 C 12,7 C 24,6 km/h
14.09.2013 09:00 13,5 C 80 % 1014,1 hPa 0,5 l/m 9,5 km/h N 10,1 C 11,7 C 27,4 km/h
14.09.2013 10:00 14,1 C 79 % 1014,1 hPa 0,5 l/m 10,9 km/h N 10,5 C 11,8 C 28,5 km/h
14.09.2013 11:00 14,6 C 78 % 1013,8 hPa 0,3 l/m 10,2 km/h N 10,8 C 12,6 C 28,2 km/h
14.09.2013 12:00 16,2 C 74 % 1013,3 hPa 0,0 l/m 8,0 km/h N 11,6 C 15,4 C 23,3 km/h
14.09.2013 13:00 18,2 C 65 % 1012,9 hPa 0,0 l/m 13,0 km/h N 11,4 C 15,6 C 31,4 km/h
14.09.2013 14:00 18,9 C 60 % 1012,8 hPa 0,0 l/m 12,1 km/h N 10,9 C 16,8 C 29,4 km/h
14.09.2013 15:00 19,6 C 57 % 1012,7 hPa 0,0 l/m 13,4 km/h N 10,9 C 17,2 C 33,8 km/h
14.09.2013 16:00 19,9 C 57 % 1012,5 hPa 0,0 l/m 9,9 km/h N 11,0 C 18,6 C 27,0 km/h
14.09.2013 17:00 20,1 C 56 % 1012,6 hPa 0,0 l/m 9,6 km/h N 11,0 C 18,9 C 28,2 km/h
14.09.2013 18:00 19,3 C 61 % 1012,8 hPa 0,0 l/m 8,4 km/h N 11,4 C 18,4 C 24,5 km/h
14.09.2013 19:00 17,8 C 64 % 1013,3 hPa 0,0 l/m 6,9 km/h N 10,9 C 17,5 C 21,7 km/h
14.09.2013 20:00 17,0 C 68 % 1013,7 hPa 0,0 l/m 6,8 km/h N 11,0 C 16,6 C 23,3 km/h
14.09.2013 21:00 16,6 C 70 % 1014,0 hPa 0,0 l/m 4,4 km/h N 11,0 C 16,5 C 18,9 km/h
14.09.2013 22:00 15,9 C 74 % 1014,2 hPa 0,0 l/m 1,8 km/h N 11,1 C 15,9 C 11,3 km/h
14.09.2013 23:00 15,8 C 75 % 1014,1 hPa 0,0 l/m 5,1 km/h N 11,5 C 15,8 C 15,7 km/h
15.09.2013 00:00 15,3 C 77 % 1014,2 hPa 0,0 l/m 0,4 km/h N 11,3 C 15,3 C 2,4 km/h
15.09.2013 01:00 14,3 C 81 % 1014,0 hPa 0,0 l/m 0,1 km/h N 11,0 C 14,3 C 3,2 km/h
15.09.2013 02:00 14,2 C 82 % 1013,6 hPa 0,0 l/m 0,1 km/h N 11,1 C 14,2 C 1,2 km/h
15.09.2013 03:00 13,6 C 83 % 1013,2 hPa 0,0 l/m 0,0 km/h N 10,7 C 13,6 C 0,0 km/h
15.09.2013 04:00 12,3 C 83 % 1013,1 hPa 0,0 l/m 0,0 km/h N 9,5 C 12,3 C 0,4 km/h
15.09.2013 05:00 11,4 C 84 % 1012,8 hPa 0,0 l/m 0,0 km/h N 8,7 C 11,4 C 0,0 km/h
15.09.2013 06:00 11,2 C 82 % 1012,8 hPa 0,0 l/m 0,0 km/h N 8,3 C 11,2 C 0,0 km/h
15.09.2013 07:00 11,4 C 81 % 1012,5 hPa 0,0 l/m 0,0 km/h N 8,3 C 11,4 C 0,0 km/h
15.09.2013 08:00 13,4 C 78 % 1012,0 hPa 0,0 l/m 0,0 km/h N 9,6 C 13,4 C 0,0 km/h
15.09.2013 09:00 16,2 C 80 % 1011,8 hPa 0,0 l/m 0,0 km/h N 12,7 C 16,2 C 0,0 km/h
15.09.2013 10:00 19,6 C 70 % 1011,4 hPa 0,0 l/m 0,0 km/h N 14,0 C 19,6 C 0,8 km/h
15.09.2013 11:00 19,9 C 67 % 1011,0 hPa 0,0 l/m 0,0 km/h N 13,5 C 19,9 C 0,8 km/h
15.09.2013 12:00 19,8 C 66 % 1010,6 hPa 0,0 l/m 0,1 km/h N 13,3 C 19,8 C 1,6 km/h
15.09.2013 13:00 20,3 C 66 % 1010,2 hPa 0,0 l/m 0,7 km/h N 13,7 C 20,3 C 6,4 km/h
15.09.2013 14:00 21,0 C 63 % 1009,5 hPa 0,0 l/m 0,6 km/h N 13,6 C 21,0 C 6,0 km/h
15.09.2013 15:00 20,8 C 65 % 1009,0 hPa 0,0 l/m 0,5 km/h N 14,0 C 20,8 C 4,8 km/h
15.09.2013 16:00 20,5 C 68 % 1008,7 hPa 0,0 l/m 0,0 km/h N 14,3 C 20,5 C 1,6 km/h
15.09.2013 17:00 20,4 C 68 % 1008,1 hPa 0,0 l/m 0,1 km/h N 14,2 C 20,4 C 2,0 km/h
15.09.2013 18:00 19,8 C 69 % 1008,0 hPa 0,0 l/m 0,1 km/h N 13,8 C 19,8 C 2,4 km/h
15.09.2013 19:00 18,5 C 74 % 1007,7 hPa 0,0 l/m 0,0 km/h N 13,7 C 18,5 C 0,0 km/h
15.09.2013 20:00 16,5 C 78 % 1007,8 hPa 0,0 l/m 0,0 km/h N 12,6 C 16,5 C 0,0 km/h
15.09.2013 21:00 15,0 C 82 % 1007,6 hPa 0,0 l/m 0,0 km/h N 11,9 C 15,0 C 0,4 km/h
15.09.2013 22:00 14,1 C 83 % 1007,3 hPa 0,0 l/m 0,0 km/h N 11,3 C 14,1 C 0,0 km/h
15.09.2013 23:00 13,9 C 82 % 1007,0 hPa 0,0 l/m 0,1 km/h N 10,9 C 13,9 C 1,2 km/h
Min-Datum _ 10.09.13 10.09.13 15.09.13 - 09.09.13 - 12.09.13 13.09.13 09.09.13
_ Min-Zeit 06:45 11:45 23:45 - 00:00 - 23:15 08:30 00:00
Minimum _ 10,8 C 48 % 1006,8 hPa - 0,0 km/h - 6,8 C 9,3 C 0,0 km/h
Max-Datum _ 10.09.13 15.09.13 09.09.13 13.09.13 14.09.13 - 09.09.13 10.09.13 09.09.13
_ Max-Zeit 13:30 05:00 22:30 19:30 13:30 - 08:00 13:15 11:30
Maximum _ 24,8 C 84 % 1019,3 hPa 4,9 l/m 16,7 km/h
N
- 14,9 C 24,6 C 45,1 km/h
N
Durchschnitt _ 15,6 C 70 % 1014,6 hPa #17,2 l/m 5,1 km/h N 10,1 C 15,0 C 15,5 km/h